• Join FlightAware (Why Join?)
  • Login
  • US Flag 
Trick or treat! (Boo!!) 
05:22AM EDT


 

Airport Tracker/Info


-or-


 

Live Flight TrackerFlight Track Log ✈ N43618 ✈ 03-Jul-2013 ✈ T94 - KEFD

Flight Track Log - Related Links

Times and Time Zones

All times are in EDT time to prevent confusion due to time zone crossing. See the N43618 flight status page for this flight to view local times or setup timezone preferences in your user account.

Time Position Orientation Groundspeed Altitude Reporting Facility
EDT Latitude Longitude Course Direction KTS MPH feet Rate Location/Type
02:13PM 29.5956 -98.3206 88° East 126 145 3,900  Level Houston Center
02:14PM 29.5933 -98.2747 93° East 125 144 4,500 420 Climbing Houston Center
02:14PM 29.5925 -98.2442 92° East 126 145 4,800 480 Climbing Houston Center
02:15PM 29.5953 -98.2053 85° East 124 143 5,400 360 Climbing Houston Center
02:16PM 29.5953 -98.1597 90° East 129 148 5,600  Climbing Houston Center
02:18PM 29.5769 -98.1709 88° East  Level Estimated
02:18PM 29.5969 -98.1114 88° East 147 169 5,400  Level Houston Center
02:19PM 29.5994 -98.0703 86° East 133 153 5,500 60 Climbing Houston Center
02:20PM 29.6000 -98.0317 89° East 126 145 5,600  Climbing Houston Center
02:21PM 29.6000 -97.9883 90° East 134 154 5,500 -60 Descending Houston Center
02:22PM 29.6014 -97.9258 89° East 133 153 5,500  Level Houston Center
02:23PM 29.6017 -97.8817 90° East 138 159 5,600 60 Climbing Houston Center
02:24PM 29.6022 -97.8378 89° East 139 160 5,700 -180 Climbing Houston Center
02:25PM 29.6014 -97.7883 91° East 150 173 5,300 -180 Descending Houston Center
02:26PM 29.6033 -97.7419 87° East 148 170 5,400 60 Climbing Houston Center
02:27PM 29.6033 -97.7006 90° East 135 155 5,500 60 Climbing Houston Center
02:28PM 29.6042 -97.6561 89° East 137 158 5,600 -60 Climbing Houston Center
02:29PM 29.6044 -97.6025 90° East 139 160 5,400  Descending Houston Center
02:30PM 29.6053 -97.5606 89° East 135 155 5,600  Climbing Houston Center
02:31PM 29.6056 -97.5158 90° East 138 159 5,500 -60 Descending Houston Center
02:32PM 29.6067 -97.4719 88° East 139 160 5,500 60 Level Houston Center
02:33PM 29.6064 -97.4253 90° East 142 163 5,700  Climbing Houston Center
02:34PM 29.6067 -97.3728 90° East 156 180 5,500 -360 Descending Houston Center
02:35PM 29.6072 -97.3133 89° East 158 182 5,000  Descending Houston Center
02:36PM 29.6089 -97.2700 87° East 144 166 5,500 180 Climbing Houston Center
02:37PM 29.6083 -97.2264 91° East 137 158 5,400  Descending Houston Center
02:38PM 29.6092 -97.1822 89° East 139 160 5,500  Climbing Houston Center
02:40PM 29.6081 -97.1364 92° East 141 162 5,500 -60 Level Houston Center
02:41PM 29.6081 -97.0883 90° East 147 169 5,400  Descending Houston Center
02:41PM 29.6083 -97.0572 89° East 143 165 5,500 60 Climbing Houston Center
02:42PM 29.6094 -97.0358 87° East 140 161 5,500 -120 Level Houston Center
02:42PM 29.6092 -97.0142 91° East 141 162 5,400  Descending Houston Center
02:43PM 29.6083 -96.9889 92° East 143 165 5,500 60 Climbing Houston Center
02:43PM 29.6089 -96.9567 89° East 139 160 5,500  Level Houston Center
02:44PM 29.6103 -96.9228 87° East 138 159 5,500  Level Houston Center
02:45PM 29.6097 -96.9000 92° East 141 162 5,500  Level Houston Center
02:46PM 29.6097 -96.8528 90° East 146 168 5,500 -120 Level Houston Center
02:46PM 29.6086 -96.8244 93° East 146 168 5,400  Descending Houston Center
02:47PM 29.6089 -96.7742 90° East 142 163 5,500  Climbing Houston Center
02:48PM 29.6097 -96.7333 89° East 147 169 5,400 -120 Descending Houston Center
02:49PM 29.6103 -96.7053 89° East 145 167 5,400 60 Level Houston Center
02:50PM 29.6114 -96.6603 88° East 142 163 5,500 60 Climbing Houston Center
02:50PM 29.6103 -96.6372 93° East 143 165 5,500  Level Houston Center
02:51PM 29.6103 -96.6119 90° East 149 171 5,500 60 Level Houston Center
02:52PM 29.6100 -96.5653 90° East 146 168 5,600 -60 Climbing Houston Center
02:53PM 29.6100 -96.5169 90° East 150 173 5,400 -120 Descending Houston Center
02:54PM 29.6108 -96.4717 89° East 143 165 5,400  Level Houston Center
02:55PM 29.6108 -96.4208 90° East 134 154 5,400  Level Houston Center
02:56PM 29.6106 -96.3767 90° East 137 158 5,500  Climbing Houston Center
02:57PM 29.6100 -96.3317 91° East 140 161 5,500  Level Houston Center
02:58PM 29.6103 -96.2839 90° East 148 170 5,500 -60 Level Houston Center
02:59PM 29.6103 -96.2383 90° East 144 166 5,400  Descending Houston Center
03:00PM 29.6106 -96.1850 90° East 138 159 5,500  Climbing Houston Center
03:01PM 29.6089 -96.1394 92° East 142 163 5,500 -60 Level Houston Center
03:02PM 29.6094 -96.0947 89° East 140 161 5,400 -60 Descending Houston Center
03:03PM 29.6092 -96.0489 90° East 143 165 5,400  Level Houston Center
03:04PM 29.6100 -96.0011 89° East 140 161 5,400  Level Houston Center
03:05PM 29.6089 -95.9544 92° East 146 168 5,500 -240 Climbing Houston Center
03:06PM 29.6025 -95.9092 99° East 145 167 5,000 -420 Descending Houston Center
03:08PM 29.5894 -95.8494 104° East 152 175 4,700 -360 Descending Houston Center
03:09PM 29.5814 -95.8150 105° East 151 174 4,300 -420 Descending Houston Center
03:10PM 29.5686 -95.7600 105° East 150 173 3,900 -480 Descending Houston Center
03:11PM 29.5558 -95.7069 105° East 153 176 3,400 -300 Descending Houston Center
03:12PM 29.5478 -95.6686 104° East 147 169 3,300  Descending Houston Center
03:13PM 29.5389 -95.6258 103° East 141 162 3,500 180 Climbing Houston Center
03:14PM 29.5272 -95.5758 105° East 138 159 3,700 -60 Climbing Houston Center
03:15PM 29.5178 -95.5303 103° East 144 166 3,400 -180 Descending Houston Center
03:16PM 29.5086 -95.4869 104° East 140 161 3,400 -60 Level Houston Center
03:17PM 29.4981 -95.4400 104° East 139 160 3,300 -180 Descending Houston Center
03:18PM 29.4939 -95.3950 96° East 143 165 3,100 -180 Descending Houston Center
03:19PM 29.4897 -95.3500 96° East 145 167 3,000 -120 Descending Houston Center
03:20PM 29.4858 -95.2994 95° East 143 165 2,900 -120 Descending Houston Center
03:21PM 29.4825 -95.2558 95° East 141 162 2,800 -360 Descending Houston Center
03:22PM 29.4942 -95.2150 72° East 153 176 2,300 -600 Descending Houston Center
03:23PM 29.5267 -95.1822 41° Northeast 149 171 1,700 -540 Descending Houston Center
03:24PM 29.5650 -95.1631 24° Northeast 146 168 1,300 -480 Descending Houston Center
03:25PM 29.6019 -95.1539 12° North 132 152 800 -540 Descending Houston Center
03:26PM 29.6225 -95.1722 322° Northwest 128 147 200 -540 Descending Houston Center